Time;durP1;ratioP1;P1;durP2;ratioP2;P2;SDS_P1;SDS_P2;PMS_P1;PMS_P2;Temp;Humidity;BMP_temperature;BMP_pressure;BME280_temperature;BME280_humidity;BME280_pressure;Samples;Min_cycle;Max_cycle;Signal;HPM_P1;HPM_P2
2022/10/23 00:01:44;;;;;;;;;;;;;;;25.94;45.08;94318.34;5052327;28;8742;-60
2022/10/23 00:04:20;;;;;;;;;;;;;;;25.92;45.11;94313.34;5068115;28;6979;-60
2022/10/23 00:06:47;;;;;;;;;;;;;;;25.94;44.77;94312.84;5070045;28;7233;-60
2022/10/23 00:09:21;;;;;;;;;;;;;;;25.93;45.61;94311.31;5047057;28;7006;-60
2022/10/23 00:11:54;;;;;;;;;;;;;;;25.90;44.92;94301.34;5087714;28;7216;-60
2022/10/23 00:14:24;;;;;;;;;;;;;;;25.89;45.62;94308.88;5040604;28;7696;-60
2022/10/23 00:16:53;;;;;;;;;;;;;;;25.90;44.81;94313.09;5047619;28;7237;-60
2022/10/23 00:19:46;;;;;;;;;;;;;;;25.89;45.30;94306.09;5044219;28;7500;-60
2022/10/23 00:22:12;;;;;;;;;;;;;;;25.85;45.33;94300.13;5046915;28;8447;-60
2022/10/23 00:24:40;;;;;;;;;;;;;;;25.87;45.65;94302.38;5066826;28;7116;-60
2022/10/23 00:27:06;;;;;;;;;;;;;;;25.86;44.91;94303.66;5047439;28;7243;-60
2022/10/23 00:29:34;;;;;;;;;;;;;;;25.87;45.19;94297.63;5069608;28;7228;-60
2022/10/23 00:32:04;;;;;;;;;;;;;;;25.85;45.26;94297.38;5045920;28;7216;-60
2022/10/23 00:34:38;;;;;;;;;;;;;;;25.88;44.82;94301.13;5055784;28;7274;-60
2022/10/23 00:37:04;;;;;;;;;;;;;;;25.84;44.97;94303.38;5067723;28;8931;-60
2022/10/23 00:39:51;;;;;;;;;;;;;;;25.83;45.37;94304.66;5053929;28;7237;-60
2022/10/23 00:42:20;;;;;;;;;;;;;;;25.83;44.80;94302.66;5066327;28;9132;-60
2022/10/23 00:44:55;;;;;;;;;;;;;;;25.87;45.40;94313.38;5050600;28;9070;-60
2022/10/23 00:47:29;;;;;;;;;;;;;;;25.83;44.96;94307.41;5053753;28;9619;-60
2022/10/23 00:50:03;;;;;;;;;;;;;;;25.85;45.38;94313.91;5043746;28;9294;-60
2022/10/23 00:52:51;;;;;;;;;;;;;;;25.86;45.50;94309.16;5070665;28;6956;-61
2022/10/23 00:55:37;;;;;;;;;;;;;;;25.86;44.87;94317.41;5071526;28;9754;-60
2022/10/23 00:58:14;;;;;;;;;;;;;;;25.85;45.62;94321.44;5069585;28;9434;-60
2022/10/23 01:00:52;;;;;;;;;;;;;;;25.82;45.46;94312.19;5070310;28;7420;-60
2022/10/23 01:03:24;;;;;;;;;;;;;;;25.80;45.05;94311.94;5053369;28;8979;-60
2022/10/23 01:06:23;;;;;;;;;;;;;;;25.83;45.30;94310.16;5047968;28;8910;-60
2022/10/23 01:09:35;;;;;;;;;;;;;;;25.83;44.87;94318.44;4941629;28;7242;-60
2022/10/23 01:12:31;;;;;;;;;;;;;;;25.80;44.82;94306.44;4929990;28;7230;-60
2022/10/23 01:15:27;;;;;;;;;;;;;;;25.78;44.97;94300.69;4953952;28;8517;-60
2022/10/23 01:18:16;;;;;;;;;;;;;;;25.79;45.67;94302.19;4952651;28;7236;-60
2022/10/23 01:21:19;;;;;;;;;;;;;;;25.80;45.43;94303.69;4944897;28;7240;-60
2022/10/23 01:24:03;;;;;;;;;;;;;;;25.79;45.35;94299.44;4949475;28;7408;-60
2022/10/23 01:26:38;;;;;;;;;;;;;;;25.79;45.12;94285.66;4941640;28;7037;-60
2022/10/23 01:29:18;;;;;;;;;;;;;;;25.78;45.34;94286.16;4950078;28;7273;-60
2022/10/23 01:32:14;;;;;;;;;;;;;;;25.78;45.62;94280.66;4943379;28;7520;-60
2022/10/23 01:34:55;;;;;;;;;;;;;;;25.75;45.16;94284.44;4948244;28;7131;-60
2022/10/23 01:37:53;;;;;;;;;;;;;;;25.73;45.56;94282.19;4932048;29;7366;-60
2022/10/23 01:40:34;;;;;;;;;;;;;;;25.73;45.29;94276.69;4926312;28;9045;-60
2022/10/23 01:43:15;;;;;;;;;;;;;;;25.74;45.31;94275.44;4935587;28;8898;-60
2022/10/23 01:46:00;;;;;;;;;;;;;;;25.72;45.71;94272.44;5073650;28;7195;-60
2022/10/23 01:48:32;;;;;;;;;;;;;;;25.71;45.44;94273.69;5056828;28;7898;-60
2022/10/23 01:51:05;;;;;;;;;;;;;;;25.72;45.84;94277.22;5054672;28;8884;-60
2022/10/23 01:53:40;;;;;;;;;;;;;;;25.71;45.78;94267.47;5069009;28;9575;-60
2022/10/23 01:56:21;;;;;;;;;;;;;;;25.70;45.50;94247.44;5060352;28;7191;-60
2022/10/23 01:58:54;;;;;;;;;;;;;;;25.68;45.45;94258.22;5082001;28;8884;-60
2022/10/23 02:01:26;;;;;;;;;;;;;;;25.66;44.96;94260.00;5070442;28;7648;-60
2022/10/23 02:04:32;;;;;;;;;;;;;;;25.65;45.07;94242.72;5075379;28;7227;-60
2022/10/23 02:07:12;;;;;;;;;;;;;;;25.65;45.25;94247.47;5044868;28;7262;-60
2022/10/23 02:09:52;;;;;;;;;;;;;;;25.64;45.74;94255.00;5028896;28;7311;-60
2022/10/23 02:12:54;;;;;;;;;;;;;;;25.65;46.01;94259.22;5031004;28;7403;-61
2022/10/23 02:15:52;;;;;;;;;;;;;;;25.65;45.94;94256.47;4952295;28;8602;-61
2022/10/23 02:18:48;;;;;;;;;;;;;;;25.64;45.07;94243.22;4954401;28;7242;-61
2022/10/23 02:21:33;;;;;;;;;;;;;;;25.62;45.81;94229.94;4971467;28;7947;-61
2022/10/23 02:24:08;;;;;;;;;;;;;;;25.63;45.83;94239.72;4961522;28;7216;-61
2022/10/23 02:26:51;;;;;;;;;;;;;;;25.62;45.58;94240.25;4960271;28;7374;-61
2022/10/23 02:29:37;;;;;;;;;;;;;;;25.60;45.79;94234.50;4957090;28;7359;-60
2022/10/23 02:32:25;;;;;;;;;;;;;;;25.60;45.24;94231.75;4963186;28;8372;-60
2022/10/23 02:34:54;;;;;;;;;;;;;;;25.59;45.58;94231.00;4954194;28;8874;-61
2022/10/23 02:37:24;;;;;;;;;;;;;;;25.59;45.49;94217.22;4947153;28;7490;-61
2022/10/23 02:40:19;;;;;;;;;;;;;;;25.59;45.83;94213.72;4955765;28;9347;-61
2022/10/23 02:43:03;;;;;;;;;;;;;;;25.57;45.69;94210.75;4922573;29;9993;-61
2022/10/23 02:45:48;;;;;;;;;;;;;;;25.58;45.80;94212.97;4923226;28;6992;-61
2022/10/23 02:48:22;;;;;;;;;;;;;;;25.57;45.08;94217.00;4929247;28;8269;-61
2022/10/23 02:54:48;;;;;;;;;;;;;;;25.54;45.65;94214.50;4957654;28;9609;-61
2022/10/23 02:58:05;;;;;;;;;;;;;;;25.55;45.17;94210.50;4964225;28;7257;-61
2022/10/23 03:01:04;;;;;;;;;;;;;;;25.54;46.02;94201.50;4926648;29;6981;-61
2022/10/23 03:03:39;;;;;;;;;;;;;;;25.54;45.71;94203.50;4886624;29;7000;-61
2022/10/23 03:06:25;;;;;;;;;;;;;;;25.54;46.15;94209.00;4878811;29;9093;-61
2022/10/23 03:09:29;;;;;;;;;;;;;;;25.53;45.76;94202.00;4883118;29;6987;-61
2022/10/23 03:12:12;;;;;;;;;;;;;;;25.53;45.79;94213.78;5102155;27;7055;-58
2022/10/23 03:14:38;;;;;;;;;;;;;;;25.50;45.30;94208.53;5048430;28;7503;-57
2022/10/23 03:17:04;;;;;;;;;;;;;;;25.48;45.71;94203.56;5046211;28;8354;-58
2022/10/23 03:19:30;;;;;;;;;;;;;;;25.49;45.56;94196.78;5043295;28;7379;-58
2022/10/23 03:22:11;;;;;;;;;;;;;;;25.50;45.61;94189.28;5051384;28;9264;-58
2022/10/23 03:24:45;;;;;;;;;;;;;;;25.50;45.73;94190.03;5047799;28;7196;-58
2022/10/23 03:27:46;;;;;;;;;;;;;;;25.50;45.55;94192.78;5075523;28;7223;-59
2022/10/23 03:30:14;;;;;;;;;;;;;;;25.50;46.05;94183.75;5005439;28;7270;-60
2022/10/23 03:33:12;;;;;;;;;;;;;;;25.49;45.28;94188.50;4996323;28;7141;-59
2022/10/23 03:36:09;;;;;;;;;;;;;;;25.45;46.18;94185.31;4977909;28;7263;-60
2022/10/23 03:38:52;;;;;;;;;;;;;;;25.45;45.79;94163.28;4950512;28;7080;-60
2022/10/23 03:41:36;;;;;;;;;;;;;;;25.45;46.06;94163.28;4946799;29;6981;-60
2022/10/23 03:44:03;;;;;;;;;;;;;;;25.46;45.38;94164.78;4948021;28;7408;-59
2022/10/23 03:46:38;;;;;;;;;;;;;;;25.46;45.51;94158.53;4948901;29;7136;-60
2022/10/23 03:49:12;;;;;;;;;;;;;;;25.44;45.57;94167.31;4948312;28;7033;-60
2022/10/23 03:51:52;;;;;;;;;;;;;;;25.42;46.18;94153.31;4947438;28;7068;-60
2022/10/23 03:54:33;;;;;;;;;;;;;;;25.41;45.75;94154.53;4946249;28;7456;-60
2022/10/23 03:57:10;;;;;;;;;;;;;;;25.41;45.82;94147.03;4947779;28;7044;-60
2022/10/23 04:00:22;;;;;;;;;;;;;;;25.41;45.61;94158.03;4944371;28;9538;-60
2022/10/23 04:02:59;;;;;;;;;;;;;;;25.39;46.01;94154.28;4908286;29;6987;-60
2022/10/23 04:05:35;;;;;;;;;;;;;;;25.36;46.18;94145.06;4882928;29;7216;-59
2022/10/23 04:08:09;;;;;;;;;;;;;;;25.39;46.07;94154.28;4873470;29;6896;-60
2022/10/23 04:10:48;;;;;;;;;;;;;;;25.36;45.74;94156.06;4873700;29;6983;-59
2022/10/23 04:13:17;;;;;;;;;;;;;;;25.34;46.24;94155.09;4906431;29;7738;-60
2022/10/23 04:15:49;;;;;;;;;;;;;;;25.35;45.90;94154.59;4965300;28;9835;-60
2022/10/23 04:18:20;;;;;;;;;;;;;;;25.38;45.78;94156.28;4962871;28;6905;-60
2022/10/23 04:20:48;;;;;;;;;;;;;;;25.37;46.00;94137.56;4981890;28;7782;-59
2022/10/23 04:23:32;;;;;;;;;;;;;;;25.35;46.06;94153.84;4955521;28;7000;-60
2022/10/23 04:26:13;;;;;;;;;;;;;;;25.32;46.31;94144.59;4954529;28;7537;-60
2022/10/23 04:28:49;;;;;;;;;;;;;;;25.33;46.10;94150.84;4932935;28;7278;-60
2022/10/23 04:31:24;;;;;;;;;;;;;;;25.32;45.60;94154.84;4970444;28;7373;-60
2022/10/23 04:33:50;;;;;;;;;;;;;;;25.33;45.99;94151.59;4949821;28;9144;-59
2022/10/23 04:36:34;;;;;;;;;;;;;;;25.32;46.22;94154.84;4965312;28;7416;-60
2022/10/23 04:39:01;;;;;;;;;;;;;;;25.31;45.63;94153.38;4984557;28;8718;-60
2022/10/23 04:41:33;;;;;;;;;;;;;;;25.32;45.87;94152.84;5010023;28;9229;-60
2022/10/23 04:44:06;;;;;;;;;;;;;;;25.31;46.28;94153.38;5028458;28;7409;-60
2022/10/23 04:46:48;;;;;;;;;;;;;;;25.29;46.17;94145.63;5024248;28;7417;-60
2022/10/23 04:49:14;;;;;;;;;;;;;;;25.28;45.97;94152.41;5023814;28;8636;-60
2022/10/23 04:51:42;;;;;;;;;;;;;;;25.29;46.44;94166.91;5033776;28;7255;-60
2022/10/23 04:54:10;;;;;;;;;;;;;;;25.27;46.61;94159.16;5029100;28;7199;-60
2022/10/23 04:56:51;;;;;;;;;;;;;;;25.25;46.23;94161.66;5029747;28;7179;-60
2022/10/23 04:59:16;;;;;;;;;;;;;;;25.26;46.27;94156.91;5028148;28;7420;-60
2022/10/23 05:01:46;;;;;;;;;;;;;;;25.25;46.47;94149.94;5027741;28;7233;-60
2022/10/23 05:04:13;;;;;;;;;;;;;;;25.23;45.95;94149.69;5010639;28;7056;-60
2022/10/23 05:06:41;;;;;;;;;;;;;;;25.23;45.93;94158.69;5010513;28;7161;-60
2022/10/23 05:09:09;;;;;;;;;;;;;;;25.21;46.62;94166.72;5009596;28;7296;-60
2022/10/23 05:11:42;;;;;;;;;;;;;;;25.18;46.21;94153.25;5024943;28;7136;-60
2022/10/23 05:14:10;;;;;;;;;;;;;;;25.18;46.13;94156.75;5025958;28;7146;-60
2022/10/23 05:16:50;;;;;;;;;;;;;;;25.18;46.86;94156.75;5010820;28;6961;-60
2022/10/23 05:19:26;;;;;;;;;;;;;;;25.19;45.96;94168.47;5009751;28;7543;-60
2022/10/23 05:22:19;;;;;;;;;;;;;;;25.21;46.91;94165.97;5017370;28;7270;-61
2022/10/23 05:24:48;;;;;;;;;;;;;;;25.21;46.22;94171.47;5006529;28;8957;-60
2022/10/23 05:27:17;;;;;;;;;;;;;;;25.22;46.54;94176.47;5002498;28;8988;-60
2022/10/23 05:29:55;;;;;;;;;;;;;;;25.18;45.47;94167.00;5000047;28;7206;-60
2022/10/23 05:32:37;;;;;;;;;;;;;;;25.16;45.67;94173.03;5001619;28;7044;-60
2022/10/23 05:35:10;;;;;;;;;;;;;;;25.15;45.81;94173.53;5007137;28;10217;-60
2022/10/23 05:37:54;;;;;;;;;;;;;;;25.15;45.66;94170.78;4991450;28;7290;-60
2022/10/23 05:40:23;;;;;;;;;;;;;;;25.18;45.85;94162.25;5013879;28;6994;-60
2022/10/23 05:42:54;;;;;;;;;;;;;;;25.18;45.84;94172.50;5021187;28;7373;-61
2022/10/23 05:45:22;;;;;;;;;;;;;;;25.21;45.85;94176.97;4993269;28;7406;-60
2022/10/23 05:47:50;;;;;;;;;;;;;;;25.23;45.35;94168.94;5007381;28;7272;-60
2022/10/23 05:50:16;;;;;;;;;;;;;;;25.25;45.79;94167.19;5004543;28;7458;-60
2022/10/23 05:53:20;;;;;;;;;;;;;;;25.29;45.06;94175.19;5003238;28;7263;-60
2022/10/23 05:56:02;;;;;;;;;;;;;;;25.31;44.93;94170.66;4945895;28;7104;-60
2022/10/23 05:58:32;;;;;;;;;;;;;;;25.33;45.64;94173.63;4934702;28;7659;-60
2022/10/23 06:01:06;;;;;;;;;;;;;;;25.36;45.19;94182.84;4955406;28;7389;-60
2022/10/23 06:03:47;;;;;;;;;;;;;;;25.39;45.64;94170.81;4951553;28;8654;-60
2022/10/23 06:06:14;;;;;;;;;;;;;;;25.42;44.96;94172.59;4963868;28;7128;-59
2022/10/23 06:08:57;;;;;;;;;;;;;;;25.44;44.84;94178.31;4948941;28;7368;-60
2022/10/23 06:11:35;;;;;;;;;;;;;;;25.49;45.59;94169.25;4951379;28;8892;-60
2022/10/23 06:14:01;;;;;;;;;;;;;;;25.51;44.99;94180.50;4970504;28;9838;-60
2022/10/23 06:16:27;;;;;;;;;;;;;;;25.56;45.40;94190.72;4969085;28;8398;-60
2022/10/23 06:18:53;;;;;;;;;;;;;;;25.64;45.03;94193.66;4952920;28;8226;-60
2022/10/23 06:21:34;;;;;;;;;;;;;;;25.72;45.12;94200.81;4947825;28;7157;-60
2022/10/23 06:24:10;;;;;;;;;;;;;;;25.83;45.15;94203.47;4951413;28;7225;-60
2022/10/23 06:26:47;;;;;;;;;;;;;;;25.92;44.78;94197.63;4955108;28;6992;-60
2022/10/23 06:29:19;;;;;;;;;;;;;;;25.97;45.15;94205.06;4966659;28;7356;-60
2022/10/23 06:32:36;;;;;;;;;;;;;;;26.07;44.30;94199.97;5010110;28;7089;-60
2022/10/23 06:35:25;;;;;;;;;;;;;;;26.12;44.93;94201.94;4998674;28;7262;-60
2022/10/23 06:38:00;;;;;;;;;;;;;;;26.19;44.07;94198.56;5022703;28;7334;-60
2022/10/23 06:40:54;;;;;;;;;;;;;;;26.24;44.23;94188.75;5026181;28;7437;-60
2022/10/23 06:43:52;;;;;;;;;;;;;;;26.29;44.66;94196.97;5003188;28;6962;-60
2022/10/23 06:46:22;;;;;;;;;;;;;;;26.31;44.42;94199.19;4968556;28;9077;-60
2022/10/23 06:49:02;;;;;;;;;;;;;;;26.35;43.95;94221.72;4947480;28;7822;-60
2022/10/23 06:51:41;;;;;;;;;;;;;;;26.35;43.75;94213.44;4953133;28;10173;-60
2022/10/23 06:54:15;;;;;;;;;;;;;;;26.37;43.45;94205.38;4953033;28;7262;-60
2022/10/23 06:56:41;;;;;;;;;;;;;;;26.37;43.89;94194.34;4961967;28;8748;-60
2022/10/23 06:59:07;;;;;;;;;;;;;;;26.38;43.32;94218.66;4945407;28;9532;-60
2022/10/23 07:01:34;;;;;;;;;;;;;;;26.38;44.06;94204.13;4952147;28;7222;-61
2022/10/23 07:04:03;;;;;;;;;;;;;;;26.40;43.73;94198.84;4953214;28;7481;-60
2022/10/23 07:06:31;;;;;;;;;;;;;;;26.40;43.77;94199.59;4944685;28;6894;-61
2022/10/23 07:08:58;;;;;;;;;;;;;;;26.41;43.54;94205.84;4950105;29;7870;-60
2022/10/23 07:11:30;;;;;;;;;;;;;;;26.39;43.36;94219.41;4967755;28;6978;-60
2022/10/23 07:14:01;;;;;;;;;;;;;;;26.39;43.71;94216.63;4951615;28;7483;-60
2022/10/23 07:16:28;;;;;;;;;;;;;;;26.37;43.23;94221.94;4969813;28;9533;-61
2022/10/23 07:18:58;;;;;;;;;;;;;;;26.37;43.61;94222.69;4954715;28;7057;-61
2022/10/23 07:21:34;;;;;;;;;;;;;;;26.34;43.78;94220.22;4967328;28;7964;-60
2022/10/23 07:24:02;;;;;;;;;;;;;;;26.34;43.24;94223.00;5025292;28;7218;-61
2022/10/23 07:26:31;;;;;;;;;;;;;;;26.32;43.72;94220.72;5008928;28;7200;-60
2022/10/23 07:29:02;;;;;;;;;;;;;;;26.32;43.16;94215.22;5026837;28;7111;-61
2022/10/23 07:31:31;;;;;;;;;;;;;;;26.31;43.91;94219.25;5011675;28;7000;-61
2022/10/23 07:34:11;;;;;;;;;;;;;;;26.25;43.73;94213.06;5009713;28;9574;-60
2022/10/23 07:36:36;;;;;;;;;;;;;;;26.24;44.24;94219.06;5006739;28;7364;-60
2022/10/23 07:39:11;;;;;;;;;;;;;;;26.22;44.14;94219.59;5043722;28;7314;-60
2022/10/23 07:41:38;;;;;;;;;;;;;;;26.15;44.11;94215.41;5026101;28;7216;-60
2022/10/23 07:44:04;;;;;;;;;;;;;;;26.17;44.47;94221.16;5003414;28;7311;-60
2022/10/23 07:46:31;;;;;;;;;;;;;;;26.17;43.73;94215.66;5009064;28;8649;-60
2022/10/23 07:49:06;;;;;;;;;;;;;;;26.14;43.67;94218.69;5011811;28;9340;-61
2022/10/23 07:51:38;;;;;;;;;;;;;;;26.11;44.50;94223.25;5018420;28;7227;-60
2022/10/23 07:54:13;;;;;;;;;;;;;;;26.10;44.36;94212.72;5003430;28;7222;-60
2022/10/23 07:56:45;;;;;;;;;;;;;;;26.08;44.03;94202.22;5009958;28;7125;-60
2022/10/23 07:59:25;;;;;;;;;;;;;;;26.10;44.73;94207.19;5014463;28;6977;-60
2022/10/23 08:01:56;;;;;;;;;;;;;;;26.09;44.22;94198.22;5030593;28;6986;-60
2022/10/23 08:04:23;;;;;;;;;;;;;;;26.10;44.05;94187.91;5015877;28;7564;-60
2022/10/23 08:07:01;;;;;;;;;;;;;;;26.10;44.11;94193.41;5013098;28;8765;-60
2022/10/23 08:09:35;;;;;;;;;;;;;;;26.09;43.96;94191.94;5015146;28;7237;-61
2022/10/23 08:12:01;;;;;;;;;;;;;;;26.08;44.51;94198.69;5024927;28;7163;-61
2022/10/23 08:14:27;;;;;;;;;;;;;;;26.06;44.69;94190.94;5013531;28;7237;-60
2022/10/23 08:16:53;;;;;;;;;;;;;;;26.04;44.40;94196.22;5035690;28;9245;-61
2022/10/23 08:19:19;;;;;;;;;;;;;;;26.05;45.09;94197.72;5037309;28;7042;-61
2022/10/23 08:22:11;;;;;;;;;;;;;;;26.05;45.34;94189.47;5030825;28;7061;-61
2022/10/23 08:24:39;;;;;;;;;;;;;;;26.06;45.20;94190.94;5013203;28;9048;-60
2022/10/23 08:27:05;;;;;;;;;;;;;;;26.04;45.17;94179.69;5007315;28;7297;-60
2022/10/23 08:29:38;;;;;;;;;;;;;;;26.04;45.60;94185.19;5015716;28;7065;-60
2022/10/23 08:32:13;;;;;;;;;;;;;;;26.05;45.09;94186.69;5029035;28;9282;-61
2022/10/23 08:34:48;;;;;;;;;;;;;;;26.03;45.55;94183.69;5026344;28;7446;-60
2022/10/23 08:37:17;;;;;;;;;;;;;;;26.03;45.65;94178.19;5031130;28;7232;-61
2022/10/23 08:39:43;;;;;;;;;;;;;;;26.03;45.16;94185.72;5046764;28;8947;-60
2022/10/23 08:42:22;;;;;;;;;;;;;;;26.02;45.71;94190.47;5013472;28;9518;-60
2022/10/23 08:45:20;;;;;;;;;;;;;;;26.03;44.54;94189.19;5005343;28;7234;-60
2022/10/23 08:47:59;;;;;;;;;;;;;;;26.00;44.93;94173.72;5024794;28;7233;-60
2022/10/23 08:51:23;;;;;;;;;;;;;;;26.02;44.57;94171.19;5033689;28;7063;-60
2022/10/23 08:54:12;;;;;;;;;;;;;;;26.00;45.49;94165.44;5017044;28;7204;-60
2022/10/23 08:56:41;;;;;;;;;;;;;;;25.99;44.90;94165.97;5011421;28;7447;-60
2022/10/23 08:59:38;;;;;;;;;;;;;;;25.98;45.54;94156.97;4993924;28;8897;-60
2022/10/23 09:02:39;;;;;;;;;;;;;;;25.98;45.39;94159.72;5002555;28;7262;-60
2022/10/23 09:05:33;;;;;;;;;;;;;;;25.98;45.14;94154.22;4999152;28;7603;-60
2022/10/23 09:08:40;;;;;;;;;;;;;;;25.97;46.06;94162.97;5021034;28;7271;-60
2022/10/23 09:11:21;;;;;;;;;;;;;;;25.95;46.06;94158.00;5016064;28;7315;-60
2022/10/23 09:13:57;;;;;;;;;;;;;;;25.92;45.46;94153.53;5017071;28;7217;-60
2022/10/23 09:16:41;;;;;;;;;;;;;;;25.92;45.59;94156.28;5008322;28;7286;-61
2022/10/23 09:19:26;;;;;;;;;;;;;;;25.90;46.05;94147.75;5011205;28;8458;-59
2022/10/23 09:21:55;;;;;;;;;;;;;;;25.91;45.79;94149.28;5010318;28;9145;-60
2022/10/23 09:24:30;;;;;;;;;;;;;;;25.90;45.39;94136.75;5018247;28;7570;-60
2022/10/23 09:27:07;;;;;;;;;;;;;;;25.91;45.14;94140.25;5045693;28;8857;-60
2022/10/23 09:29:45;;;;;;;;;;;;;;;25.92;45.09;94134.25;5040636;28;7430;-60
2022/10/23 09:32:12;;;;;;;;;;;;;;;25.92;45.11;94127.97;5040390;28;8038;-61
2022/10/23 09:34:54;;;;;;;;;;;;;;;25.92;45.05;94133.50;5040351;28;8299;-61
2022/10/23 09:37:36;;;;;;;;;;;;;;;25.91;45.23;94129.22;5040164;28;7030;-61
2022/10/23 09:40:19;;;;;;;;;;;;;;;25.92;45.66;94122.47;5036186;28;6997;-61
2022/10/23 09:43:15;;;;;;;;;;;;;;;25.90;45.79;94111.94;5049665;28;7352;-60
2022/10/23 09:46:08;;;;;;;;;;;;;;;25.88;45.37;94122.03;5033560;28;7401;-61
2022/10/23 09:48:38;;;;;;;;;;;;;;;25.88;44.84;94128.25;5038676;28;7563;-61
2022/10/23 09:51:18;;;;;;;;;;;;;;;25.88;45.86;94117.22;5048698;28;7220;-61
2022/10/23 09:53:53;;;;;;;;;;;;;;;25.89;45.34;94121.50;5036759;28;7221;-61
2022/10/23 09:56:40;;;;;;;;;;;;;;;25.90;45.83;94113.97;5033825;28;7416;-61
2022/10/23 09:59:27;;;;;;;;;;;;;;;25.89;45.47;94113.22;5039009;28;7405;-61
2022/10/23 10:01:57;;;;;;;;;;;;;;;25.89;45.07;94102.19;5044470;28;9431;-60
2022/10/23 10:04:41;;;;;;;;;;;;;;;25.88;45.59;94108.25;5054696;28;7243;-61
2022/10/23 10:07:27;;;;;;;;;;;;;;;25.87;45.58;94104.72;5027951;28;9459;-61
2022/10/23 10:10:13;;;;;;;;;;;;;;;25.87;45.78;94098.47;5036414;28;7277;-61
2022/10/23 10:12:53;;;;;;;;;;;;;;;25.86;45.50;94097.00;5046962;28;7494;-60
2022/10/23 10:15:29;;;;;;;;;;;;;;;25.86;44.63;94092.22;5036184;28;7154;-60
2022/10/23 10:18:22;;;;;;;;;;;;;;;25.86;44.90;94094.25;5037549;28;9411;-60
2022/10/23 10:21:36;;;;;;;;;;;;;;;25.86;44.93;94097.72;5038291;28;7357;-61
2022/10/23 10:24:26;;;;;;;;;;;;;;;25.87;44.94;94098.47;5015234;28;8241;-60
2022/10/23 10:27:07;;;;;;;;;;;;;;;25.87;44.50;94106.75;5013548;28;7440;-62
2022/10/23 10:30:20;;;;;;;;;;;;;;;25.88;44.80;94097.22;5022236;28;8657;-60
2022/10/23 10:33:04;;;;;;;;;;;;;;;25.86;44.60;94097.72;5010284;28;9623;-60
2022/10/23 10:35:34;;;;;;;;;;;;;;;25.87;44.84;94099.22;5005010;28;7229;-60
2022/10/23 10:41:58;;;;;;;;;;;;;;;25.88;44.67;94095.19;4983387;28;7453;-60
2022/10/23 10:45:00;;;;;;;;;;;;;;;25.88;45.39;94089.69;4988639;28;7310;-60
2022/10/23 10:47:37;;;;;;;;;;;;;;;25.87;45.19;94074.44;4975780;28;7395;-61
2022/10/23 10:50:16;;;;;;;;;;;;;;;25.91;44.78;94085.16;4987477;28;9213;-60
2022/10/23 10:52:54;;;;;;;;;;;;;;;25.91;45.42;94076.88;4985997;28;7321;-60
2022/10/23 10:55:37;;;;;;;;;;;;;;;25.92;45.67;94084.66;4969310;28;9192;-60
2022/10/23 10:58:17;;;;;;;;;;;;;;;25.92;44.88;94079.13;4968454;28;9395;-60
2022/10/23 11:00:57;;;;;;;;;;;;;;;25.94;45.06;94079.34;4981130;28;7230;-60
2022/10/23 11:03:40;;;;;;;;;;;;;;;25.95;45.72;94072.56;4989785;28;7228;-60
2022/10/23 11:06:21;;;;;;;;;;;;;;;25.94;45.09;94084.13;4970937;28;7034;-60
2022/10/23 11:09:03;;;;;;;;;;;;;;;25.97;45.73;94081.06;4990708;28;7384;-61
2022/10/23 11:11:39;;;;;;;;;;;;;;;26.00;45.63;94080.03;5013812;28;7004;-60
2022/10/23 11:14:18;;;;;;;;;;;;;;;25.98;45.71;94082.56;5016248;28;6993;-60
2022/10/23 11:16:51;;;;;;;;;;;;;;;25.98;45.86;94085.31;5061257;28;7235;-60
2022/10/23 11:19:25;;;;;;;;;;;;;;;26.00;45.89;94079.28;5060670;28;7156;-61
2022/10/23 11:22:22;;;;;;;;;;;;;;;26.03;45.94;94084.47;5049433;28;7856;-60
2022/10/23 11:25:27;;;;;;;;;;;;;;;26.02;45.22;94076.72;5037650;28;9150;-60
2022/10/23 11:28:29;;;;;;;;;;;;;;;26.01;45.32;94080.78;5030401;28;6971;-60
2022/10/23 11:31:54;;;;;;;;;;;;;;;26.02;45.55;94093.28;5036462;28;7158;-60
2022/10/23 11:34:56;;;;;;;;;;;;;;;26.02;45.79;94087.75;5027668;28;7419;-60
2022/10/23 11:37:29;;;;;;;;;;;;;;;26.00;45.47;94088.28;5007066;28;7094;-60
2022/10/23 11:40:23;;;;;;;;;;;;;;;25.98;46.13;94087.31;5010768;28;7491;-60
2022/10/23 11:42:53;;;;;;;;;;;;;;;25.98;45.16;94090.81;4992520;28;7245;-60
2022/10/23 11:45:37;;;;;;;;;;;;;;;25.98;45.49;94085.31;4968380;28;9923;-60
2022/10/23 11:48:20;;;;;;;;;;;;;;;26.02;45.39;94088.50;4969557;28;7760;-60
2022/10/23 11:50:48;;;;;;;;;;;;;;;26.02;45.91;94096.78;4983232;28;7155;-60
2022/10/23 11:53:25;;;;;;;;;;;;;;;26.00;45.90;94084.78;4983829;28;7364;-60
2022/10/23 11:56:22;;;;;;;;;;;;;;;26.03;45.39;94078.25;4992712;28;7164;-60
2022/10/23 11:58:56;;;;;;;;;;;;;;;26.03;45.67;94081.00;4972452;28;7630;-60
2022/10/23 12:01:41;;;;;;;;;;;;;;;26.02;45.50;94071.97;4989123;28;7421;-59
2022/10/23 12:04:41;;;;;;;;;;;;;;;26.03;45.34;94062.44;4991022;28;7367;-60
2022/10/23 12:07:30;;;;;;;;;;;;;;;26.00;45.63;94069.00;4947789;28;7368;-60
2022/10/23 12:10:38;;;;;;;;;;;;;;;25.99;45.66;94028.91;4967131;28;7171;-60
2022/10/23 12:13:38;;;;;;;;;;;;;;;26.00;46.52;94048.97;4961712;28;7282;-60
2022/10/23 12:16:09;;;;;;;;;;;;;;;26.01;45.30;94058.72;4953043;28;7185;-60
2022/10/23 12:18:45;;;;;;;;;;;;;;;26.01;46.30;94069.75;4941349;28;7421;-60
2022/10/23 12:21:37;;;;;;;;;;;;;;;26.02;45.66;94069.22;4999074;28;7095;-60
2022/10/23 12:24:22;;;;;;;;;;;;;;;26.00;45.65;94077.25;4980073;28;9020;-60
2022/10/23 12:27:03;;;;;;;;;;;;;;;25.98;46.10;94070.78;5002772;28;7049;-60
2022/10/23 12:30:23;;;;;;;;;;;;;;;25.98;46.44;94046.72;4990510;28;7249;-60
2022/10/23 12:33:20;;;;;;;;;;;;;;;25.97;46.18;94050.75;4962640;28;7251;-60
2022/10/23 12:36:22;;;;;;;;;;;;;;;25.98;45.73;94048.72;4950241;28;7466;-61
2022/10/23 12:38:57;;;;;;;;;;;;;;;26.00;45.84;94029.66;4965725;28;7258;-60
2022/10/23 12:41:53;;;;;;;;;;;;;;;26.04;45.96;94025.34;4962833;28;7328;-60
2022/10/23 12:44:31;;;;;;;;;;;;;;;26.02;45.90;94038.91;4904135;29;7082;-60
2022/10/23 12:47:02;;;;;;;;;;;;;;;26.01;45.97;94029.13;4887518;29;7365;-60
2022/10/23 12:49:33;;;;;;;;;;;;;;;26.04;46.56;94022.59;4893292;29;7474;-60
2022/10/23 12:52:27;;;;;;;;;;;;;;;26.06;46.75;94022.06;4894849;29;7085;-60
2022/10/23 12:54:58;;;;;;;;;;;;;;;26.04;46.04;94025.34;4891958;29;8226;-60
2022/10/23 12:57:40;;;;;;;;;;;;;;;26.04;45.82;94008.81;4878956;29;7050;-60
2022/10/23 13:00:17;;;;;;;;;;;;;;;26.06;45.65;93994.50;4882004;29;7417;-60
2022/10/23 13:02:43;;;;;;;;;;;;;;;26.06;45.97;94011.03;4888687;29;7247;-60
2022/10/23 13:05:18;;;;;;;;;;;;;;;26.06;45.68;94005.53;4889195;29;7244;-60
2022/10/23 13:07:47;;;;;;;;;;;;;;;26.08;45.71;94003.75;4928856;28;7123;-60
2022/10/23 13:10:25;;;;;;;;;;;;;;;26.07;46.08;93987.72;4938051;28;7960;-61
2022/10/23 13:13:01;;;;;;;;;;;;;;;26.05;46.41;93990.28;4937375;28;8920;-60
2022/10/23 13:15:40;;;;;;;;;;;;;;;26.04;46.52;93999.78;4945166;28;7006;-60
2022/10/23 13:18:13;;;;;;;;;;;;;;;26.01;46.04;93993.31;4930251;28;7144;-60
2022/10/23 13:21:16;;;;;;;;;;;;;;;26.05;46.51;93973.72;4975521;28;10292;-60
2022/10/23 13:23:53;;;;;;;;;;;;;;;26.06;46.46;93978.72;4974811;28;7269;-60
2022/10/23 13:26:48;;;;;;;;;;;;;;;26.05;46.01;93977.25;4991865;28;7278;-60
2022/10/23 13:29:29;;;;;;;;;;;;;;;26.07;45.74;93968.44;4976309;28;7794;-60
2022/10/23 13:31:59;;;;;;;;;;;;;;;26.07;46.27;93973.94;5004714;28;7039;-60
2022/10/23 13:34:28;;;;;;;;;;;;;;;26.04;45.71;93969.47;4992004;28;7254;-60
2022/10/23 13:37:20;;;;;;;;;;;;;;;26.02;45.90;93956.22;4998316;28;7072;-60
2022/10/23 13:40:26;;;;;;;;;;;;;;;26.02;46.49;93956.22;4991894;28;9390;-60
2022/10/23 13:43:17;;;;;;;;;;;;;;;26.05;45.99;93966.22;4974393;28;7182;-60
2022/10/23 13:45:47;;;;;;;;;;;;;;;26.05;46.26;93959.94;4993407;28;7441;-60
2022/10/23 13:48:15;;;;;;;;;;;;;;;26.04;45.91;93988.75;4974231;28;6988;-60
2022/10/23 13:50:49;;;;;;;;;;;;;;;26.06;46.66;93980.72;4990161;28;8900;-60
2022/10/23 13:53:17;;;;;;;;;;;;;;;26.08;45.68;93986.44;4992284;28;7428;-60
2022/10/23 13:55:51;;;;;;;;;;;;;;;26.05;46.40;93988.25;4987341;28;7376;-60
2022/10/23 13:58:18;;;;;;;;;;;;;;;26.07;46.56;93987.72;5022385;28;6977;-60
2022/10/23 14:00:53;;;;;;;;;;;;;;;26.07;46.59;93985.72;5059574;28;7047;-60
2022/10/23 14:03:23;;;;;;;;;;;;;;;26.12;45.97;93975.91;5031330;28;7236;-60
2022/10/23 14:05:57;;;;;;;;;;;;;;;26.15;45.91;93961.81;5035872;28;9026;-60
2022/10/23 14:08:33;;;;;;;;;;;;;;;26.21;45.67;93958.25;5031042;28;7327;-60
2022/10/23 14:11:05;;;;;;;;;;;;;;;26.23;46.26;93967.44;5034011;28;7325;-60